Archival Weather

NSFA McMurdo Sound

NSFA McMurdo Sound, Antarctica (NZCM)

Report from: Friday, September 23, 2022 9:55 PM UTC
Current time: Sunday, December 4, 2022 12:30 PM UTC

Current weather
Weather history
Weather forecast

Present weatherLight snow, freezing fog
Temperature-13.6°C (7.5°F)
Wind chill-23.8°C (-10.9°F)
Dew point-16.2°C (2.8°F)
Winds 15 kts (7.7 m/s, 17.3 mph) Southeast (140°)
Wind gusts 23 kts (11.8 m/s, 26.5 mph)
Visibility0.5 mi. (0.8 km)
Clouds Ceiling: Vertical visibility 700 ft. (213 m)
Altimeter28.65 in.Hg (970 mB)
Precip. events Snow ended 9:28 PM
Snow began 9:32 PM
Relative humidity81 %
Density altitude-2,062 ft. (-629 m)
Sea-level pressure107.1 kPa (1071 mB, 31.63 in.Hg)
Remarks Fully automated report
System requires maintenance
Automated weather observing station with precipitation discriminator
Flight conditions Low Instrument Meteorological Conditions
Raw dataNZCM 232155Z AUTO 14015G23KT 0800 -SN FZFG VV007 M14/M16 A2865 RMK AO2 SNE2128B2132 SLP710 T11361162 $
An error has occurred. This application may no longer respond until reloaded. Reload 🗙